Beech Grove, Texas
Current Conditions -  °F | °C
As of 10:15 AM on Monday 24 Nov 2014 (Local Time) from KJAS Reporting Station
Clear Clear  
Wind Chill: 13°   Ceiling: Unl
Heat Index: 13°   Visibility: 10mi
Dew Point:   Wind: 9mph
Humidity: 54%   Direction: 330°NNW
Pressure: 30.06"   Gusts: NA
Location:  30.9529°N, 94.0707°W
Report Text: KJAS 241615Z AUTO 33008KT 10SM CLR 13/04 A3006 RMK AO2 T01280037
Loading
Personal Weather Stations






























Interactive Weather Map New forecast layout! Learn more

10-Day Weather Forecast

Advertisements
Track Severe Weather on mobile